L Anse, Michigan
Current Conditions -  °F | °C
As of 10:53 PM on Monday 22 Dec 2014 (Local Time) from KCMX Reporting Station
Haze Haze  
Wind Chill: -4°   Ceiling: 9500
Heat Index:   Visibility: 5mi
Dew Point: -1°   Wind: 10mph
Humidity: 89%   Direction: 100°E
Pressure: 29.82"   Gusts: NA
Location:  46.7277°N, 88.2881°W
Report Text: KCMX 230353Z AUTO 10009KT 5SM BR SCT021 BKN095 OVC120 01/M01 A2982 RMK AO2 SLP110 T00061011
Loading
Personal Weather Stations






























Interactive Weather Map New forecast layout! Learn more

10-Day Weather Forecast

Advertisements
Track Severe Weather on mobile